Terminal Aerodrome Forecast
Issued by NWS Pueblo, CO

Home | Current Version | Previous Version | Text Only | Print | Product List | Glossary On
Versions: 1 2 3 4 5 6 7 8 9 10 11 12 13 14 15 16 17 18 19 20 21 22 23 24 25 26 27 28 29 30 31 32 33 34 35 36 37 38 39 40 41 42 43 44 45 46 47 48 49 50
000
FTUS45 KPUB 061126
TAFCOS
TAF
KCOS 061126Z 0612/0712 03007KT P6SM VCSH SCT006 BKN070
      TEMPO 0612/0614 3SM -SHRA BR
     FM061800 18010KT P6SM SCT060 BKN080
     FM062000 19012KT P6SM VCTS SCT060CB BKN100
     FM070100 35012G22KT P6SM SCT080 BKN120
     FM070300 01008KT P6SM SCT120 BKN200=

USA.gov is the U.S. government's official web portal to all federal, state and local government web resources and services.